createdAt,value
2022-07-26T00:01:03.106Z,0.056840003
2022-07-26T00:02:02.296Z,0.032480001
2022-07-26T00:03:05.911Z,0.105560005
2022-07-26T00:04:05.880Z,0.081200004
2022-07-26T00:05:07.574Z,0.121800005
2022-07-26T00:06:10.755Z,0.105560005
2022-07-26T00:07:04.727Z,0.129920006
2022-07-26T00:09:06.514Z,0.032480001
2022-07-26T00:10:08.461Z,0.105560005
2022-07-26T00:11:07.100Z,0.113680005
2022-07-26T00:11:07.179Z,0.113680005
2022-07-26T00:12:05.869Z,0.081200004
2022-07-26T00:13:00.151Z,0.064960003
2022-07-26T00:14:03.412Z,0.032480001
2022-07-26T00:14:58.733Z,0.040600002
2022-07-26T00:15:56.207Z,0.138040006
2022-07-26T00:16:57.020Z,0.146160007
2022-07-26T00:17:52.409Z,0.081200004
2022-07-26T00:19:54.790Z,0.129920006
2022-07-26T00:20:47.501Z,0.113680005
2022-07-26T00:21:50.209Z,0.105560005
2022-07-26T00:22:44.769Z,0.105560005
2022-07-26T00:24:49.595Z,0.121800005
2022-07-26T00:27:38.281Z,0.064960003
2022-07-26T00:29:48.415Z,0.089320004
2022-07-26T00:30:45.025Z,0.048720002
2022-07-26T00:31:47.958Z,0.089320004
2022-07-26T00:32:46.171Z,0.056840003
2022-07-26T00:33:48.696Z,0.121800005
2022-07-26T00:34:47.819Z,0.121800005
2022-07-26T00:35:46.190Z,0.186760008
2022-07-26T00:36:47.442Z,0.073080003
2022-07-26T00:37:44.175Z,0.154280007
2022-07-26T00:39:53.764Z,0.121800005
2022-07-26T00:40:55.362Z,0.121800005
2022-07-26T00:41:57.080Z,0.129920006
2022-07-26T00:42:54.226Z,0.113680005
2022-07-26T00:43:54.332Z,0.081200004
2022-07-26T00:44:54.959Z,0.113680005
2022-07-26T00:45:55.558Z,0.138040006
2022-07-26T00:46:56.215Z,0.146160007
2022-07-26T00:47:52.723Z,0.121800005
2022-07-26T00:49:03.948Z,0.097440004
2022-07-26T00:49:57.776Z,0.170520008
2022-07-26T00:50:56.740Z,0.105560005
2022-07-26T00:51:56.339Z,0.154280007
2022-07-26T00:53:04.445Z,0.081200004
2022-07-26T00:53:58.817Z,0.081200004
2022-07-26T00:55:02.613Z,0.154280007
2022-07-26T00:56:00.981Z,0.073080003
2022-07-26T00:57:14.189Z,0.097440004
2022-07-26T00:59:48.895Z,0.040600002
2022-07-26T01:00:49.532Z,0.040600002
2022-07-26T01:01:49.038Z,0.073080003
2022-07-26T01:02:44.468Z,0.105560005
2022-07-26T01:04:41.301Z,0.016240001
2022-07-26T01:05:41.592Z,0.081200004
2022-07-26T01:06:40.780Z,0.048720002
2022-07-26T01:07:42.276Z,0.154280007
2022-07-26T01:08:36.596Z,0.024360001
2022-07-26T01:09:35.855Z,0.113680005
2022-07-26T01:10:34.503Z,0.040600002
2022-07-26T01:11:39.897Z,0.073080003
2022-07-26T01:12:34.169Z,0.121800005
2022-07-26T01:14:32.136Z,0.097440004
2022-07-26T01:15:32.269Z,0.056840003
2022-07-26T01:16:30.508Z,0.00812
2022-07-26T01:17:26.732Z,0.073080003
2022-07-26T01:19:28.606Z,0.081200004
2022-07-26T01:20:23.885Z,0.056840003
2022-07-26T01:21:29.008Z,0.073080003
2022-07-26T01:22:23.282Z,0.081200004
2022-07-26T01:24:17.052Z,0.105560005
2022-07-26T01:25:21.260Z,0.162400007
2022-07-26T01:26:21.591Z,0.040600002
2022-07-26T01:27:17.759Z,0.097440004
2022-07-26T01:29:12.590Z,0.170520008
2022-07-26T01:30:17.302Z,0.048720002
2022-07-26T01:31:18.239Z,0.056840003
2022-07-26T01:32:14.139Z,0.105560005
2022-07-26T01:34:09.182Z,0.097440004
2022-07-26T01:35:08.535Z,0.081200004
2022-07-26T01:36:08.646Z,0.056840003
2022-07-26T01:38:35.115Z,0.113680005
2022-07-26T01:39:34.160Z,0.129920006
2022-07-26T01:40:35.688Z,0.194880009
2022-07-26T01:41:38.663Z,0.105560005
2022-07-26T01:43:14.229Z,0.073080003
2022-07-26T01:44:17.517Z,0.097440004
2022-07-26T01:45:12.915Z,0.121800005
2022-07-26T01:46:17.067Z,0.016240001
2022-07-26T01:47:15.177Z,0.040600002
2022-07-26T01:49:08.273Z,0.129920006
2022-07-26T01:50:08.114Z,0.016240001
2022-07-26T01:51:03.330Z,0.105560005
2022-07-26T01:52:02.495Z,0.178640008
2022-07-26T01:53:00.675Z,0.089320004
2022-07-26T01:54:04.840Z,0.097440004
2022-07-26T01:55:00.295Z,0.040600002
2022-07-26T01:56:05.621Z,0.056840003
2022-07-26T01:57:05.839Z,0.081200004
2022-07-26T01:58:12.624Z,0.056840003
2022-07-26T01:59:08.517Z,0.089320004
2022-07-26T02:00:05.507Z,0.048720002
2022-07-26T02:01:04.439Z,0.073080003
2022-07-26T02:02:01.199Z,0.056840003
2022-07-26T02:03:02.930Z,0.064960003
2022-07-26T02:04:56.552Z,0.056840003
2022-07-26T02:05:51.974Z,0.113680005
2022-07-26T02:06:50.982Z,0.154280007
2022-07-26T02:07:46.460Z,0.073080003
2022-07-26T02:09:23.645Z,0.097440004
2022-07-26T02:11:49.526Z,0.089320004
2022-07-26T02:12:48.510Z,0.064960003
2022-07-26T02:14:46.033Z,0.073080003
2022-07-26T02:15:41.220Z,0.089320004
2022-07-26T02:16:39.553Z,0.105560005
2022-07-26T02:17:41.925Z,0.105560005
2022-07-26T02:18:42.203Z,0.162400007
2022-07-26T02:19:42.336Z,0.146160007
2022-07-26T02:20:41.308Z,0.064960003
2022-07-26T02:21:39.486Z,0.064960003
2022-07-26T02:22:54.226Z,0.024360001
2022-07-26T02:23:52.402Z,0
2022-07-26T02:24:53.880Z,0.048720002
2022-07-26T02:25:46.384Z,0.203000009
2022-07-26T02:26:44.980Z,0.097440004
2022-07-26T02:27:43.472Z,0.089320004
2022-07-26T02:29:38.970Z,0.040600002
2022-07-26T02:30:30.073Z,0.073080003
2022-07-26T02:31:34.136Z,0.162400007
2022-07-26T02:32:25.742Z,0.056840003
2022-07-26T02:33:30.203Z,0.081200004
2022-07-26T02:34:32.204Z,0.064960003
2022-07-26T02:34:34.034Z,0.064960003
2022-07-26T02:35:31.627Z,0.105560005
2022-07-26T02:36:25.883Z,0.073080003
2022-07-26T02:37:24.115Z,0.113680005
2022-07-26T02:40:25.186Z,0.105560005
2022-07-26T02:41:25.712Z,0.121800005
2022-07-26T02:42:26.333Z,0.064960003
2022-07-26T02:44:26.652Z,0.081200004
2022-07-26T02:45:27.573Z,0.121800005
2022-07-26T02:46:27.049Z,0.154280007
2022-07-26T02:47:27.556Z,0.056840003
2022-07-26T02:48:25.864Z,0.097440004
2022-07-26T02:49:28.712Z,0.00812
2022-07-26T02:50:26.710Z,0.170520008
2022-07-26T02:51:27.217Z,0.056840003
2022-07-26T02:52:27.734Z,0.129920006
2022-07-26T02:54:21.488Z,0.113680005
2022-07-26T02:55:26.121Z,0.154280007
2022-07-26T02:56:20.393Z,0.097440004
2022-07-26T02:57:22.595Z,0.032480001
2022-07-26T02:59:19.138Z,0.064960003
2022-07-26T03:00:17.381Z,0.105560005
2022-07-26T03:01:19.054Z,0.129920006
2022-07-26T03:02:17.205Z,0.121800005
2022-07-26T03:04:22.092Z,0.081200004
2022-07-26T03:05:22.804Z,0.024360001
2022-07-26T03:06:24.243Z,0.024360001
2022-07-26T03:07:26.680Z,0.016240001
2022-07-26T03:09:25.758Z,0.032480001
2022-07-26T03:10:21.686Z,0.113680005
2022-07-26T03:11:24.785Z,0.081200004
2022-07-26T03:12:19.075Z,0.056840003
2022-07-26T03:14:19.607Z,0.073080003
2022-07-26T03:15:18.882Z,0.113680005
2022-07-26T03:16:17.006Z,0.089320004
2022-07-26T03:17:14.249Z,0.056840003
2022-07-26T03:18:12.364Z,0.129920006
2022-07-26T03:20:14.940Z,0.032480001
2022-07-26T03:21:16.802Z,0.089320004
2022-07-26T03:22:17.106Z,0.040600002
2022-07-26T03:23:17.493Z,0.073080003
2022-07-26T03:24:15.478Z,0.081200004
2022-07-26T03:25:16.102Z,0.073080003
2022-07-26T03:27:21.721Z,0.073080003
2022-07-26T03:28:19.657Z,0.113680005
2022-07-26T03:29:21.865Z,0.113680005
2022-07-26T03:30:25.196Z,0.129920006
2022-07-26T03:31:19.449Z,0.105560005
2022-07-26T03:32:18.642Z,0.105560005
2022-07-26T03:33:22.916Z,0.00812
2022-07-26T03:34:21.607Z,0.032480001
2022-07-26T03:35:20.679Z,0.138040006
2022-07-26T03:36:21.686Z,0.081200004
2022-07-26T03:37:19.673Z,0.081200004
2022-07-26T03:38:23.382Z,0.105560005
2022-07-26T03:39:25.461Z,0.105560005
2022-07-26T03:40:24.955Z,0.097440004
2022-07-26T03:41:27.395Z,0.056840003
2022-07-26T03:42:30.545Z,0.064960003
2022-07-26T03:43:25.729Z,0.064960003
2022-07-26T03:44:32.035Z,0.089320004
2022-07-26T03:45:27.861Z,0.040600002
2022-07-26T03:46:29.441Z,0.113680005
2022-07-26T03:47:32.857Z,0.064960003
2022-07-26T03:48:34.700Z,0.032480001
2022-07-26T03:49:35.129Z,0.121800005
2022-07-26T03:50:33.914Z,0.089320004
2022-07-26T03:51:30.164Z,0.154280007
2022-07-26T03:52:30.940Z,0.186760008
2022-07-26T03:54:35.159Z,0.146160007
2022-07-26T03:55:29.478Z,0.105560005
2022-07-26T03:56:29.711Z,0.081200004
2022-07-26T03:57:28.417Z,0.113680005
2022-07-26T03:59:27.283Z,0.064960003
2022-07-26T04:00:29.590Z,0.138040006
2022-07-26T04:01:32.521Z,0.048720002
2022-07-26T04:02:35.534Z,0
2022-07-26T04:05:49.018Z,0.032480001
2022-07-26T04:05:49.039Z,0.032480001
2022-07-26T04:06:45.112Z,0.00812
2022-07-26T04:07:40.099Z,0.154280007
2022-07-26T04:09:37.710Z,0.064960003
2022-07-26T04:10:32.635Z,0.170520008
2022-07-26T04:11:32.720Z,0.089320004
2022-07-26T04:12:30.231Z,0.097440004
2022-07-26T04:14:27.278Z,0.064960003
2022-07-26T04:15:33.562Z,0.064960003
2022-07-26T04:16:26.353Z,0.113680005
2022-07-26T04:17:27.847Z,0.146160007
2022-07-26T04:19:26.162Z,0.105560005
2022-07-26T04:20:20.928Z,0.170520008
2022-07-26T04:21:20.597Z,0.089320004
2022-07-26T04:22:16.879Z,0.089320004
2022-07-26T04:23:19.079Z,0.040600002
2022-07-26T04:25:13.055Z,0.064960003
2022-07-26T04:26:13.674Z,0.105560005
2022-07-26T04:27:11.845Z,0.129920006
2022-07-26T04:28:13.617Z,0.162400007
2022-07-26T04:30:15.149Z,0.146160007
2022-07-26T04:31:11.381Z,0.154280007
2022-07-26T04:32:10.426Z,0.129920006
2022-07-26T04:33:20.766Z,0.064960003
2022-07-26T04:35:17.046Z,0.097440004
2022-07-26T04:36:16.423Z,0.129920006
2022-07-26T04:37:13.610Z,0.073080003
2022-07-26T04:38:15.929Z,0.178640008
2022-07-26T04:40:12.940Z,0.113680005
2022-07-26T04:41:11.168Z,0.032480001
2022-07-26T04:42:11.415Z,0.105560005
2022-07-26T04:43:07.713Z,0.154280007
2022-07-26T04:44:12.474Z,0.073080003
2022-07-26T04:45:08.380Z,0.113680005
2022-07-26T04:46:07.166Z,0.178640008
2022-07-26T04:47:08.076Z,0.064960003
2022-07-26T04:49:44.556Z,0.170520008
2022-07-26T04:50:43.383Z,0.146160007
2022-07-26T04:51:43.962Z,0.162400007
2022-07-26T04:52:43.432Z,0.121800005
2022-07-26T04:54:38.725Z,0.203000009
2022-07-26T04:55:38.828Z,0.203000009
2022-07-26T04:56:34.462Z,0.056840003
2022-07-26T04:57:35.318Z,0.22736001
2022-07-26T04:58:32.371Z,0.203000009
2022-07-26T04:59:33.207Z,0.194880009
2022-07-26T05:00:27.629Z,0.170520008
2022-07-26T05:01:29.311Z,0.113680005
2022-07-26T05:02:23.721Z,0.129920006
2022-07-26T05:03:28.375Z,0.146160007
2022-07-26T05:04:20.915Z,0.121800005
2022-07-26T05:05:22.952Z,0.186760008
2022-07-26T05:06:27.401Z,0.129920006
2022-07-26T05:07:27.859Z,0.203000009
2022-07-26T05:08:22.192Z,0.129920006
2022-07-26T05:10:20.454Z,0.154280007
2022-07-26T05:11:19.913Z,0.170520008
2022-07-26T05:12:14.275Z,0.203000009
2022-07-26T05:13:13.347Z,0.186760008
2022-07-26T05:15:15.793Z,0.162400007
2022-07-26T05:16:12.216Z,0.162400007
2022-07-26T05:17:10.879Z,0.154280007
2022-07-26T05:18:07.060Z,0.21924001
2022-07-26T05:19:04.617Z,0.194880009
2022-07-26T05:20:03.256Z,0.170520008
2022-07-26T05:20:59.053Z,0.194880009
2022-07-26T05:21:54.260Z,0.292320013
2022-07-26T05:22:55.959Z,0.21924001
2022-07-26T05:24:51.529Z,0.341040015
2022-07-26T05:25:48.639Z,0.211120009
2022-07-26T05:26:45.690Z,0.316680014
2022-07-26T05:27:40.084Z,0.300440013
2022-07-26T05:28:40.459Z,0.203000009
2022-07-26T05:29:37.339Z,0.203000009
2022-07-26T05:30:36.531Z,0.138040006
2022-07-26T05:31:34.138Z,0.21924001
2022-07-26T05:32:33.640Z,0.259840012
2022-07-26T05:34:30.374Z,0.235480011
2022-07-26T05:35:31.882Z,0.267960012
2022-07-26T05:37:47.057Z,0.267960012
2022-07-26T05:39:45.358Z,0.243600011
2022-07-26T05:40:40.644Z,0.235480011
2022-07-26T05:41:40.370Z,0.373520017
2022-07-26T05:42:37.473Z,0.332920015
2022-07-26T05:44:31.679Z,0.22736001
2022-07-26T05:45:31.775Z,0.430360019
2022-07-26T05:46:26.951Z,0.211120009
2022-07-26T05:47:25.611Z,0.292320013
2022-07-26T05:48:23.931Z,0.284200013
2022-07-26T05:50:20.570Z,0.211120009
2022-07-26T05:51:15.291Z,0.357280016
2022-07-26T05:52:17.517Z,0.324800014
2022-07-26T05:53:10.154Z,0.414120018
2022-07-26T05:55:05.349Z,0.511560023
2022-07-26T05:56:09.924Z,0.479080021
2022-07-26T05:57:02.458Z,0.44660002
2022-07-26T05:58:05.370Z,0.568400025
2022-07-26T05:59:58.201Z,0.535920024
2022-07-26T06:00:53.619Z,0.349160016
2022-07-26T06:01:53.439Z,0.365400016
2022-07-26T06:02:49.362Z,0.414120018
2022-07-26T06:04:47.533Z,0.292320013
2022-07-26T06:05:45.780Z,0.276080012
2022-07-26T06:06:41.974Z,0.389760017
2022-07-26T06:07:44.338Z,0.462840021
2022-07-26T06:08:36.581Z,0.406000018
2022-07-26T06:09:38.721Z,0.397880018
2022-07-26T06:10:31.226Z,0.332920015
2022-07-26T06:11:33.744Z,0.341040015
2022-07-26T06:12:27.042Z,0.462840021
2022-07-26T06:13:28.481Z,0.300440013
2022-07-26T06:15:18.852Z,0.495320022
2022-07-26T06:17:25.749Z,0.470960021
2022-07-26T06:18:24.665Z,0.406000018
2022-07-26T06:20:21.236Z,0.641480029
2022-07-26T06:21:20.960Z,0.657720029
2022-07-26T06:22:17.142Z,0.747040033
2022-07-26T06:23:17.010Z,0.527800024
2022-07-26T06:24:12.937Z,0.795760036
2022-07-26T06:25:13.806Z,0.706440032
2022-07-26T06:26:09.280Z,0.974400043
2022-07-26T06:27:14.736Z,0.909440041
2022-07-26T06:28:07.595Z,0.844480038
2022-07-26T06:30:03.359Z,0.950040042
2022-07-26T06:31:03.695Z,0.730800033
2022-07-26T06:31:59.465Z,0.876960039
2022-07-26T06:33:01.281Z,0.852600038
2022-07-26T06:34:55.325Z,0.90132004
2022-07-26T06:35:56.195Z,0.747040033
2022-07-26T06:36:55.215Z,0.966280043
2022-07-26T06:37:52.591Z,0.950040042
2022-07-26T06:39:51.559Z,0.941920042
2022-07-26T06:40:51.812Z,1.055600047
2022-07-26T06:41:48.998Z,0.860720038
2022-07-26T06:42:48.973Z,1.031239986
2022-07-26T06:43:44.683Z,1.209880114
2022-07-26T06:44:42.793Z,1.177400112
2022-07-26T06:45:46.774Z,1.339800119
2022-07-26T06:46:42.266Z,1.388520002
2022-07-26T06:47:42.845Z,1.583400011
2022-07-26T06:49:39.813Z,1.356040001
2022-07-26T06:50:35.402Z,1.339800119
2022-07-26T06:51:38.513Z,1.380400062
2022-07-26T06:52:32.704Z,1.502200127
2022-07-26T06:53:33.052Z,1.258599997
2022-07-26T06:54:29.601Z,1.404760122
2022-07-26T06:55:30.062Z,1.339800119
2022-07-26T06:57:50.098Z,1.437240124
2022-07-26T06:59:45.966Z,1.421000004
2022-07-26T07:00:41.322Z,1.461600065
2022-07-26T07:01:58.459Z,1.697080135
2022-07-26T07:01:58.500Z,1.697080135
2022-07-26T07:01:59.328Z,1.697080135
2022-07-26T07:02:41.436Z,1.615880013
2022-07-26T07:04:36.201Z,1.429120064
2022-07-26T07:05:31.538Z,1.688960075
2022-07-26T07:06:30.749Z,1.437240124
2022-07-26T07:07:25.561Z,1.599640131
2022-07-26T07:08:25.503Z,1.599640131
2022-07-26T07:10:20.696Z,1.859480143
2022-07-26T07:11:18.066Z,1.615880013
2022-07-26T07:12:17.470Z,1.891960144
2022-07-26T07:13:12.860Z,1.810760021
2022-07-26T07:15:08.139Z,2.224880219
2022-07-26T07:16:08.324Z,2.2411201
2022-07-26T07:17:03.773Z,2.92320013
2022-07-26T07:17:13.045Z,2.92320013
2022-07-26T07:17:17.265Z,2.92320013
2022-07-26T07:18:04.642Z,2.086840153
2022-07-26T07:20:02.417Z,1.875720024
2022-07-26T07:20:55.757Z,2.184280157
2022-07-26T07:21:58.323Z,1.859480143
2022-07-26T07:22:50.918Z,2.062479973
2022-07-26T07:23:48.985Z,1.55904007
2022-07-26T07:24:48.943Z,1.258599997
2022-07-26T07:25:44.861Z,1.55092001
2022-07-26T07:26:45.027Z,2.062479973
2022-07-26T07:27:40.434Z,2.47660017
2022-07-26T07:28:42.933Z,1.900080085
2022-07-26T07:29:35.608Z,1.437240124
2022-07-26T07:30:34.182Z,1.697080135
2022-07-26T07:31:47.846Z,2.119320154
2022-07-26T07:31:48.361Z,2.119320154
2022-07-26T07:31:48.605Z,2.119320154
2022-07-26T07:32:34.843Z,1.932560086
2022-07-26T07:35:24.032Z,1.729560137
2022-07-26T07:36:24.309Z,1.34792006
2022-07-26T07:37:20.262Z,1.258599997
2022-07-26T07:38:19.371Z,1.461600065
2022-07-26T07:40:15.820Z,2.574040174
2022-07-26T07:41:11.667Z,3.028760195
2022-07-26T07:42:19.605Z,3.215520144
2022-07-26T07:44:40.799Z,-0.089320004
2022-07-26T07:45:21.168Z,4.604040146
2022-07-26T07:46:21.686Z,4.0437603
2022-07-26T07:47:17.344Z,4.303600311
2022-07-26T07:48:18.175Z,4.701480389
2022-07-26T07:49:14.528Z,4.758320332
2022-07-26T07:50:15.107Z,4.985680103
2022-07-26T07:51:13.418Z,4.660880089
2022-07-26T07:52:09.079Z,4.417280197
2022-07-26T07:53:09.598Z,4.254879951
2022-07-26T07:54:06.084Z,4.01128006
2022-07-26T07:55:36.786Z,4.433520317
2022-07-26T07:55:36.947Z,4.433520317
2022-07-26T07:56:04.691Z,3.345440149
2022-07-26T07:57:00.126Z,1.989400148
2022-07-26T07:58:01.310Z,1.989400148
2022-07-26T07:58:56.609Z,2.03000021
2022-07-26T07:59:56.458Z,1.640240073
2022-07-26T08:00:51.893Z,1.924440145
2022-07-26T08:01:52.334Z,3.012520075
2022-07-26T08:02:47.862Z,4.263000011
2022-07-26T08:04:44.098Z,4.344200134
2022-07-26T08:05:44.804Z,3.329200268
2022-07-26T08:06:41.444Z,2.557800055
2022-07-26T08:07:43.414Z,1.924440145
2022-07-26T08:08:37.739Z,2.216760159
2022-07-26T08:09:36.615Z,2.054360151
2022-07-26T08:09:42.872Z,2.054360151
2022-07-26T08:10:35.213Z,3.418520212
2022-07-26T08:10:41.794Z,3.418520212
2022-07-26T08:10:51.729Z,3.418520212
2022-07-26T08:11:35.380Z,3.645880222
2022-07-26T08:12:31.537Z,3.540320158
2022-07-26T08:14:58.457Z,-0.089320004
2022-07-26T08:15:24.658Z,4.94508028
2022-07-26T08:16:23.041Z,5.123720169
2022-07-26T08:17:23.677Z,5.221160412
2022-07-26T08:19:47.122Z,2.47660017
2022-07-26T08:20:42.386Z,2.712080002
2022-07-26T08:21:45.421Z,4.417280197
2022-07-26T08:22:38.667Z,3.597160101
2022-07-26T08:23:38.871Z,4.782680035
2022-07-26T08:24:34.103Z,3.345440149
2022-07-26T08:25:33.985Z,2.208640099
2022-07-26T08:26:30.093Z,1.364160061
2022-07-26T08:27:28.848Z,1.201760054
2022-07-26T08:28:46.300Z,1.291079998
2022-07-26T08:28:58.519Z,1.291079998
2022-07-26T08:28:59.922Z,1.291079998
2022-07-26T08:30:24.957Z,2.078720093
2022-07-26T08:31:17.784Z,3.361680031
2022-07-26T08:32:18.602Z,6.154960155
2022-07-26T08:33:14.156Z,4.563440323
2022-07-26T08:35:17.037Z,2.898840189
2022-07-26T08:35:17.358Z,2.898840189
2022-07-26T08:36:11.528Z,4.116840363
2022-07-26T08:37:17.051Z,2.582159996
2022-07-26T08:37:17.446Z,2.582159996
2022-07-26T08:37:18.154Z,2.582159996
2022-07-26T08:38:08.218Z,2.69584012
2022-07-26T08:40:03.005Z,1.421000004
2022-07-26T08:40:58.184Z,1.258599997
2022-07-26T08:42:00.035Z,1.632120132
2022-07-26T08:42:52.956Z,1.965040088
2022-07-26T08:43:53.770Z,2.330440044
2022-07-26T08:44:47.523Z,1.615880013
2022-07-26T08:45:54.611Z,1.266720057
2022-07-26T08:46:42.508Z,1.445360065
2022-07-26T08:48:00.722Z,1.810760021
2022-07-26T08:48:14.951Z,1.810760021
2022-07-26T08:48:16.070Z,1.810760021
2022-07-26T08:48:40.046Z,1.948800087
2022-07-26T08:49:35.331Z,1.656480074
2022-07-26T08:50:34.576Z,1.331680059
2022-07-26T08:51:29.717Z,1.096199989
2022-07-26T08:52:31.296Z,1.112440109
2022-07-26T08:53:26.705Z,0.868840039
2022-07-26T08:54:25.309Z,0.771400034
2022-07-26T08:55:29.647Z,0.795760036
2022-07-26T08:55:50.311Z,0.795760036
2022-07-26T08:56:24.090Z,0.657720029
2022-07-26T08:57:15.987Z,0.462840021
2022-07-26T08:58:16.381Z,0.544040024
2022-07-26T08:59:17.172Z,0.706440032
2022-07-26T08:59:20.824Z,0.706440032
2022-07-26T08:59:22.615Z,0.706440032
2022-07-26T09:00:11.860Z,0.657720029
2022-07-26T09:01:06.419Z,0.803880036
2022-07-26T09:02:05.759Z,0.747040033
2022-07-26T09:03:01.024Z,0.649600029
2022-07-26T09:04:56.945Z,0.844480038
2022-07-26T09:05:58.971Z,0.706440032
2022-07-26T09:06:51.645Z,0.998760045
2022-07-26T09:07:52.874Z,0.917560041
2022-07-26T09:09:44.112Z,1.055600047
2022-07-26T09:11:36.044Z,-0.081200004
2022-07-26T09:12:01.698Z,1.006880045
2022-07-26T09:13:00.715Z,2.509080172
2022-07-26T09:14:42.440Z,-0.040600002
2022-07-26T09:15:22.396Z,2.744560242
2022-07-26T09:16:19.895Z,2.070600033
2022-07-26T09:17:19.919Z,1.55092001
2022-07-26T09:18:15.078Z,1.827000141
2022-07-26T09:19:15.158Z,1.071840048
2022-07-26T09:20:12.063Z,1.161159992
2022-07-26T09:21:09.478Z,0.722680032
2022-07-26T09:22:09.900Z,0.600880027
2022-07-26T09:22:10.485Z,0.600880027
2022-07-26T09:23:04.187Z,0.430360019
2022-07-26T09:24:59.621Z,0.381640017
2022-07-26T09:25:54.941Z,0.300440013
2022-07-26T09:26:53.957Z,0.43848002
2022-07-26T09:27:50.130Z,0.544040024
2022-07-26T09:29:47.585Z,0.698320031
2022-07-26T09:30:45.607Z,0.544040024
2022-07-26T09:31:40.780Z,0.66584003
2022-07-26T09:32:39.107Z,0.88508004
2022-07-26T09:33:33.665Z,1.266720057
2022-07-26T09:34:33.387Z,1.583400011
2022-07-26T09:35:50.521Z,1.591520071
2022-07-26T09:35:51.224Z,1.591520071
2022-07-26T09:36:25.806Z,2.038120031
2022-07-26T09:37:26.012Z,2.338560104
2022-07-26T09:38:21.362Z,3.694600105
2022-07-26T09:40:16.997Z,4.068120003
2022-07-26T09:41:19.769Z,4.263000011
2022-07-26T09:42:28.478Z,3.645880222
2022-07-26T09:42:28.635Z,3.645880222
2022-07-26T09:42:28.872Z,3.645880222
2022-07-26T09:43:13.746Z,4.441640377
2022-07-26T09:44:10.279Z,3.946320057
2022-07-26T09:45:09.758Z,3.816400051
2022-07-26T09:46:05.405Z,4.100600243
2022-07-26T09:47:07.910Z,3.881360054
2022-07-26T09:48:01.140Z,3.978800297
2022-07-26T09:49:59.856Z,4.295480251
2022-07-26T09:50:55.316Z,4.409160137
2022-07-26T09:51:58.442Z,4.287360191
2022-07-26T09:52:51.335Z,4.084360123
2022-07-26T09:54:47.286Z,4.409160137
2022-07-26T09:55:50.349Z,4.555320263
2022-07-26T09:56:43.639Z,4.612160206
2022-07-26T09:57:46.557Z,3.80016017
2022-07-26T09:58:40.713Z,3.572800159
2022-07-26T09:59:40.570Z,3.613400221
2022-07-26T10:00:36.347Z,4.384799957
2022-07-26T10:01:39.999Z,4.222400188
2022-07-26T10:03:45.401Z,3.207400084
2022-07-26T10:04:44.460Z,2.833880186
2022-07-26T10:05:44.172Z,3.727080107
2022-07-26T10:06:40.005Z,4.815160275
2022-07-26T10:07:41.118Z,4.254879951
2022-07-26T10:08:36.745Z,3.881360054
2022-07-26T10:09:37.607Z,3.905720234
2022-07-26T10:10:33.268Z,3.873240232
2022-07-26T10:11:33.960Z,3.897600174
2022-07-26T10:12:30.663Z,4.279240131
2022-07-26T10:13:30.571Z,3.451000214
2022-07-26T10:14:31.190Z,3.329200268
2022-07-26T10:15:27.066Z,3.223640203
2022-07-26T10:16:22.506Z,2.135560036
2022-07-26T10:17:29.073Z,2.184280157
2022-07-26T10:17:31.074Z,2.184280157
2022-07-26T10:18:19.811Z,2.038120031
2022-07-26T10:20:17.613Z,2.273600101
2022-07-26T10:21:15.578Z,1.981280088
2022-07-26T10:22:10.851Z,1.607760072
2022-07-26T10:23:08.349Z,1.607760072
2022-07-26T10:24:11.127Z,1.250480056
2022-07-26T10:25:03.862Z,1.818880081
2022-07-26T10:26:03.534Z,1.940680027
2022-07-26T10:26:59.121Z,1.485960007
2022-07-26T10:27:58.992Z,1.753920078
2022-07-26T10:29:57.856Z,1.965040088
2022-07-26T10:30:50.546Z,1.900080085
2022-07-26T10:31:49.605Z,1.818880081
2022-07-26T10:32:50.684Z,1.989400148
2022-07-26T10:33:43.341Z,1.948800087
2022-07-26T10:35:38.674Z,2.2411201
2022-07-26T10:36:38.699Z,2.046240091
2022-07-26T10:37:34.177Z,1.372280121
2022-07-26T10:38:34.229Z,1.153040051
2022-07-26T10:40:30.035Z,0.609000027
2022-07-26T10:41:25.357Z,0.649600029
2022-07-26T10:42:23.129Z,0.584640026
2022-07-26T10:43:40.097Z,0.966280043
2022-07-26T10:43:44.487Z,0.966280043
2022-07-26T10:44:17.013Z,1.079960108
2022-07-26T10:45:16.731Z,1.258599997
2022-07-26T10:46:12.140Z,1.429120064
2022-07-26T10:47:14.511Z,1.34792006
2022-07-26T10:48:08.004Z,1.047480106
2022-07-26T10:49:07.254Z,1.12056005
2022-07-26T10:50:02.064Z,1.591520071
2022-07-26T10:51:06.348Z,1.006880045
2022-07-26T10:52:02.356Z,1.250480056
2022-07-26T10:54:24.350Z,1.193639994
2022-07-26T10:55:19.375Z,1.112440109
2022-07-26T10:56:14.765Z,0.990640044
2022-07-26T10:57:14.181Z,1.096199989
2022-07-26T10:58:08.760Z,1.031239986
2022-07-26T10:59:09.752Z,0.787640035
2022-07-26T11:00:05.479Z,0.706440032
2022-07-26T11:01:07.056Z,0.812000036
2022-07-26T11:02:02.385Z,0.706440032
2022-07-26T11:03:01.090Z,1.088080049
2022-07-26T11:04:57.782Z,0.917560041
2022-07-26T11:05:50.972Z,1.169280052
2022-07-26T11:06:50.008Z,0.836360037
2022-07-26T11:07:45.394Z,1.209880114
2022-07-26T11:08:48.172Z,0.88508004
2022-07-26T11:10:40.114Z,0.747040033
2022-07-26T11:11:34.806Z,0.66584003
2022-07-26T11:12:34.161Z,1.015000105
2022-07-26T11:13:29.403Z,1.307320118
2022-07-26T11:15:47.029Z,1.469720125
2022-07-26T11:16:45.200Z,1.323559999
2022-07-26T11:17:44.689Z,1.940680027
2022-07-26T11:18:39.964Z,1.770160079
2022-07-26T11:19:40.483Z,1.583400011
2022-07-26T11:20:36.678Z,1.989400148
2022-07-26T11:21:36.372Z,1.924440145
2022-07-26T11:22:34.340Z,2.200520039
2022-07-26T11:23:33.913Z,1.965040088
2022-07-26T11:25:33.194Z,2.817640066
2022-07-26T11:26:26.593Z,3.467240095
2022-07-26T11:27:26.641Z,2.947560072
2022-07-26T11:28:22.798Z,3.402280092
2022-07-26T11:30:24.862Z,3.223640203
2022-07-26T11:31:20.183Z,3.239880085
2022-07-26T11:32:18.989Z,2.858240128
2022-07-26T11:33:14.491Z,2.362920046
2022-07-26T11:35:10.293Z,2.500960112
2022-07-26T11:36:10.520Z,2.436000109
2022-07-26T11:37:07.871Z,2.257359982
2022-07-26T11:38:12.140Z,2.02188015
2022-07-26T11:39:06.422Z,2.216760159
2022-07-26T11:40:04.339Z,2.379160166
2022-07-26T11:40:59.896Z,2.557800055
2022-07-26T11:42:00.354Z,2.882600069
2022-07-26T11:42:56.562Z,2.565920115
2022-07-26T11:44:02.099Z,2.996280193
2022-07-26T11:44:56.909Z,2.955680132
2022-07-26T11:45:52.594Z,2.866360188
2022-07-26T11:46:53.132Z,3.061240196
2022-07-26T11:47:48.928Z,3.045000076